sensor_id;sensor_type;location;lat;lon;timestamp;P1;durP1;ratioP1;P2;durP2;ratioP2
66609;SDS011;53468;48.276;14.416;2022-08-16T00:16:08;14.35;;;6.45;;
66609;SDS011;53468;48.276;14.416;2022-08-16T00:22:12;8.80;;;4.22;;
66609;SDS011;53468;48.276;14.416;2022-08-16T01:05:39;3.70;;;1.90;;
66609;SDS011;53468;48.276;14.416;2022-08-16T01:11:31;4.38;;;2.30;;
66609;SDS011;53468;48.276;14.416;2022-08-16T01:17:20;6.88;;;2.58;;
66609;SDS011;53468;48.276;14.416;2022-08-16T01:35:27;2.88;;;1.45;;
66609;SDS011;53468;48.276;14.416;2022-08-16T01:41:36;7.60;;;1.88;;
66609;SDS011;53468;48.276;14.416;2022-08-16T01:53:13;3.63;;;1.80;;
66609;SDS011;53468;48.276;14.416;2022-08-16T01:59:06;4.05;;;1.52;;
66609;SDS011;53468;48.276;14.416;2022-08-16T02:17:25;4.57;;;1.77;;
66609;SDS011;53468;48.276;14.416;2022-08-16T02:23:13;4.30;;;1.88;;
66609;SDS011;53468;48.276;14.416;2022-08-16T02:28:55;3.42;;;2.25;;
66609;SDS011;53468;48.276;14.416;2022-08-16T02:41:00;2.65;;;1.55;;
66609;SDS011;53468;48.276;14.416;2022-08-16T02:46:48;2.25;;;1.55;;
66609;SDS011;53468;48.276;14.416;2022-08-16T02:58:57;2.97;;;1.65;;
66609;SDS011;53468;48.276;14.416;2022-08-16T03:04:44;3.42;;;2.05;;
66609;SDS011;53468;48.276;14.416;2022-08-16T03:10:41;3.97;;;1.70;;
66609;SDS011;53468;48.276;14.416;2022-08-16T03:22:49;4.60;;;1.80;;
66609;SDS011;53468;48.276;14.416;2022-08-16T03:29:06;2.75;;;1.60;;
66609;SDS011;53468;48.276;14.416;2022-08-16T03:47:14;2.43;;;1.60;;
66609;SDS011;53468;48.276;14.416;2022-08-16T03:53:03;2.78;;;1.65;;
66609;SDS011;53468;48.276;14.416;2022-08-16T03:58:42;3.55;;;1.70;;
66609;SDS011;53468;48.276;14.416;2022-08-16T04:05:16;3.00;;;1.83;;
66609;SDS011;53468;48.276;14.416;2022-08-16T04:11:13;3.78;;;1.70;;
66609;SDS011;53468;48.276;14.416;2022-08-16T04:17:00;6.05;;;2.08;;
66609;SDS011;53468;48.276;14.416;2022-08-16T04:23:07;4.22;;;1.80;;
66609;SDS011;53468;48.276;14.416;2022-08-16T04:28:55;3.80;;;2.00;;
66609;SDS011;53468;48.276;14.416;2022-08-16T04:34:45;5.60;;;2.22;;
66609;SDS011;53468;48.276;14.416;2022-08-16T04:46:54;3.28;;;1.48;;
66609;SDS011;53468;48.276;14.416;2022-08-16T04:52:43;3.83;;;1.90;;
66609;SDS011;53468;48.276;14.416;2022-08-16T04:58:19;3.60;;;2.13;;
66609;SDS011;53468;48.276;14.416;2022-08-16T05:10:18;5.63;;;2.35;;
66609;SDS011;53468;48.276;14.416;2022-08-16T05:16:10;3.42;;;1.83;;
66609;SDS011;53468;48.276;14.416;2022-08-16T05:21:51;5.25;;;2.63;;
66609;SDS011;53468;48.276;14.416;2022-08-16T05:27:25;4.78;;;2.60;;
66609;SDS011;53468;48.276;14.416;2022-08-16T05:32:59;7.82;;;3.28;;
66609;SDS011;53468;48.276;14.416;2022-08-16T05:38:34;7.88;;;2.40;;
66609;SDS011;53468;48.276;14.416;2022-08-16T05:44:10;5.30;;;2.53;;
66609;SDS011;53468;48.276;14.416;2022-08-16T05:49:44;9.38;;;3.08;;
66609;SDS011;53468;48.276;14.416;2022-08-16T05:55:21;6.35;;;2.95;;
66609;SDS011;53468;48.276;14.416;2022-08-16T06:00:54;4.57;;;2.55;;
66609;SDS011;53468;48.276;14.416;2022-08-16T06:06:29;5.57;;;2.80;;
66609;SDS011;53468;48.276;14.416;2022-08-16T06:12:04;7.28;;;3.00;;
66609;SDS011;53468;48.276;14.416;2022-08-16T06:17:39;15.43;;;3.13;;
66609;SDS011;53468;48.276;14.416;2022-08-16T06:23:15;11.85;;;3.38;;
66609;SDS011;53468;48.276;14.416;2022-08-16T06:28:49;9.00;;;3.85;;
66609;SDS011;53468;48.276;14.416;2022-08-16T06:34:24;7.68;;;2.55;;
66609;SDS011;53468;48.276;14.416;2022-08-16T06:39:58;8.15;;;2.50;;
66609;SDS011;53468;48.276;14.416;2022-08-16T06:45:43;7.07;;;3.22;;
66609;SDS011;53468;48.276;14.416;2022-08-16T06:51:16;8.10;;;2.95;;
66609;SDS011;53468;48.276;14.416;2022-08-16T06:56:50;6.10;;;2.78;;
66609;SDS011;53468;48.276;14.416;2022-08-16T07:02:24;6.18;;;3.15;;
66609;SDS011;53468;48.276;14.416;2022-08-16T07:08:02;10.43;;;3.60;;
66609;SDS011;53468;48.276;14.416;2022-08-16T07:13:40;4.45;;;2.97;;
66609;SDS011;53468;48.276;14.416;2022-08-16T07:19:15;15.10;;;2.97;;
66609;SDS011;53468;48.276;14.416;2022-08-16T07:24:47;8.93;;;3.75;;
66609;SDS011;53468;48.276;14.416;2022-08-16T07:30:20;5.03;;;2.60;;
66609;SDS011;53468;48.276;14.416;2022-08-16T07:35:54;8.10;;;3.20;;
66609;SDS011;53468;48.276;14.416;2022-08-16T07:41:26;6.82;;;2.80;;
66609;SDS011;53468;48.276;14.416;2022-08-16T07:46:58;5.22;;;2.65;;
66609;SDS011;53468;48.276;14.416;2022-08-16T07:52:32;6.05;;;2.90;;
66609;SDS011;53468;48.276;14.416;2022-08-16T07:58:05;5.82;;;3.10;;
66609;SDS011;53468;48.276;14.416;2022-08-16T08:03:37;11.85;;;3.30;;
66609;SDS011;53468;48.276;14.416;2022-08-16T08:09:12;4.70;;;2.10;;
66609;SDS011;53468;48.276;14.416;2022-08-16T08:14:44;4.60;;;2.50;;
66609;SDS011;53468;48.276;14.416;2022-08-16T08:20:17;7.90;;;2.53;;
66609;SDS011;53468;48.276;14.416;2022-08-16T08:25:53;5.13;;;2.30;;
66609;SDS011;53468;48.276;14.416;2022-08-16T08:31:25;3.80;;;1.90;;
66609;SDS011;53468;48.276;14.416;2022-08-16T08:36:57;2.55;;;1.80;;
66609;SDS011;53468;48.276;14.416;2022-08-16T08:42:31;4.25;;;1.90;;
66609;SDS011;53468;48.276;14.416;2022-08-16T08:48:04;3.45;;;1.90;;
66609;SDS011;53468;48.276;14.416;2022-08-16T08:53:36;5.15;;;1.83;;
66609;SDS011;53468;48.276;14.416;2022-08-16T08:59:10;7.22;;;1.77;;
66609;SDS011;53468;48.276;14.416;2022-08-16T09:04:43;3.00;;;1.30;;
66609;SDS011;53468;48.276;14.416;2022-08-16T09:10:19;5.25;;;1.95;;
66609;SDS011;53468;48.276;14.416;2022-08-16T09:15:53;5.68;;;1.77;;
66609;SDS011;53468;48.276;14.416;2022-08-16T09:21:26;5.55;;;2.28;;
66609;SDS011;53468;48.276;14.416;2022-08-16T09:26:58;4.10;;;1.65;;
66609;SDS011;53468;48.276;14.416;2022-08-16T09:32:32;4.25;;;1.80;;
66609;SDS011;53468;48.276;14.416;2022-08-16T09:38:04;6.72;;;2.00;;
66609;SDS011;53468;48.276;14.416;2022-08-16T09:43:40;6.00;;;1.77;;
66609;SDS011;53468;48.276;14.416;2022-08-16T09:49:14;8.02;;;2.42;;
66609;SDS011;53468;48.276;14.416;2022-08-16T09:54:47;4.25;;;2.15;;
66609;SDS011;53468;48.276;14.416;2022-08-16T10:00:20;4.90;;;1.75;;
66609;SDS011;53468;48.276;14.416;2022-08-16T10:05:54;6.65;;;2.30;;
66609;SDS011;53468;48.276;14.416;2022-08-16T10:11:27;6.97;;;2.10;;
66609;SDS011;53468;48.276;14.416;2022-08-16T10:22:53;3.53;;;1.80;;
66609;SDS011;53468;48.276;14.416;2022-08-16T10:28:26;3.88;;;2.03;;
66609;SDS011;53468;48.276;14.416;2022-08-16T10:33:59;3.30;;;1.95;;
66609;SDS011;53468;48.276;14.416;2022-08-16T10:39:33;3.13;;;2.20;;
66609;SDS011;53468;48.276;14.416;2022-08-16T10:45:07;4.80;;;1.92;;
66609;SDS011;53468;48.276;14.416;2022-08-16T10:50:40;4.15;;;2.13;;
66609;SDS011;53468;48.276;14.416;2022-08-16T10:56:16;6.07;;;2.17;;
66609;SDS011;53468;48.276;14.416;2022-08-16T11:01:48;4.85;;;1.90;;
66609;SDS011;53468;48.276;14.416;2022-08-16T11:07:20;5.25;;;1.95;;
66609;SDS011;53468;48.276;14.416;2022-08-16T11:12:55;4.38;;;1.83;;
66609;SDS011;53468;48.276;14.416;2022-08-16T11:18:28;4.95;;;2.15;;
66609;SDS011;53468;48.276;14.416;2022-08-16T11:24:02;5.22;;;2.50;;
66609;SDS011;53468;48.276;14.416;2022-08-16T11:29:36;3.55;;;1.80;;
66609;SDS011;53468;48.276;14.416;2022-08-16T11:35:10;6.03;;;1.95;;
66609;SDS011;53468;48.276;14.416;2022-08-16T11:40:46;2.53;;;1.27;;
66609;SDS011;53468;48.276;14.416;2022-08-16T11:46:24;5.10;;;1.75;;
66609;SDS011;53468;48.276;14.416;2022-08-16T11:51:58;3.00;;;1.25;;
66609;SDS011;53468;48.276;14.416;2022-08-16T11:57:30;3.47;;;1.85;;
66609;SDS011;53468;48.276;14.416;2022-08-16T12:03:07;5.05;;;1.90;;
66609;SDS011;53468;48.276;14.416;2022-08-16T12:08:39;4.72;;;1.77;;
66609;SDS011;53468;48.276;14.416;2022-08-16T12:14:12;6.43;;;2.70;;
66609;SDS011;53468;48.276;14.416;2022-08-16T12:19:46;2.08;;;1.27;;
66609;SDS011;53468;48.276;14.416;2022-08-16T12:25:21;3.97;;;1.85;;
66609;SDS011;53468;48.276;14.416;2022-08-16T12:30:55;8.70;;;1.85;;
66609;SDS011;53468;48.276;14.416;2022-08-16T12:36:28;3.95;;;1.98;;
66609;SDS011;53468;48.276;14.416;2022-08-16T12:42:01;3.60;;;1.90;;
66609;SDS011;53468;48.276;14.416;2022-08-16T12:47:33;2.88;;;1.40;;
66609;SDS011;53468;48.276;14.416;2022-08-16T12:53:24;2.83;;;1.38;;
66609;SDS011;53468;48.276;14.416;2022-08-16T12:58:59;3.67;;;1.65;;
66609;SDS011;53468;48.276;14.416;2022-08-16T13:04:33;3.42;;;1.98;;
66609;SDS011;53468;48.276;14.416;2022-08-16T13:10:08;4.55;;;1.90;;
66609;SDS011;53468;48.276;14.416;2022-08-16T13:15:43;3.30;;;1.75;;
66609;SDS011;53468;48.276;14.416;2022-08-16T13:21:15;3.13;;;1.50;;
66609;SDS011;53468;48.276;14.416;2022-08-16T13:26:49;3.00;;;1.60;;
66609;SDS011;53468;48.276;14.416;2022-08-16T13:32:21;3.25;;;1.52;;
66609;SDS011;53468;48.276;14.416;2022-08-16T13:37:55;1.73;;;1.30;;
66609;SDS011;53468;48.276;14.416;2022-08-16T13:43:29;5.55;;;3.25;;
66609;SDS011;53468;48.276;14.416;2022-08-16T13:49:05;4.05;;;1.80;;
66609;SDS011;53468;48.276;14.416;2022-08-16T13:54:37;3.28;;;1.67;;
66609;SDS011;53468;48.276;14.416;2022-08-16T14:00:11;1.83;;;1.20;;
66609;SDS011;53468;48.276;14.416;2022-08-16T14:05:45;2.15;;;1.45;;
66609;SDS011;53468;48.276;14.416;2022-08-16T14:11:17;4.25;;;1.40;;
66609;SDS011;53468;48.276;14.416;2022-08-16T14:16:50;4.97;;;1.63;;
66609;SDS011;53468;48.276;14.416;2022-08-16T14:22:25;14.50;;;3.17;;
66609;SDS011;53468;48.276;14.416;2022-08-16T14:27:59;5.00;;;1.73;;
66609;SDS011;53468;48.276;14.416;2022-08-16T14:33:33;2.15;;;1.30;;
66609;SDS011;53468;48.276;14.416;2022-08-16T14:39:06;2.83;;;1.52;;
66609;SDS011;53468;48.276;14.416;2022-08-16T14:44:39;2.53;;;1.50;;
66609;SDS011;53468;48.276;14.416;2022-08-16T14:50:13;5.95;;;2.10;;
66609;SDS011;53468;48.276;14.416;2022-08-16T14:55:47;4.38;;;1.55;;
66609;SDS011;53468;48.276;14.416;2022-08-16T15:01:19;2.80;;;1.63;;
66609;SDS011;53468;48.276;14.416;2022-08-16T15:06:55;3.65;;;1.58;;
66609;SDS011;53468;48.276;14.416;2022-08-16T15:12:29;5.10;;;1.50;;
66609;SDS011;53468;48.276;14.416;2022-08-16T15:18:03;3.15;;;1.60;;
66609;SDS011;53468;48.276;14.416;2022-08-16T15:23:38;2.83;;;1.70;;
66609;SDS011;53468;48.276;14.416;2022-08-16T15:29:10;3.20;;;1.50;;
66609;SDS011;53468;48.276;14.416;2022-08-16T15:34:44;2.28;;;1.35;;
66609;SDS011;53468;48.276;14.416;2022-08-16T15:40:18;2.55;;;1.52;;
66609;SDS011;53468;48.276;14.416;2022-08-16T15:45:52;2.28;;;1.42;;
66609;SDS011;53468;48.276;14.416;2022-08-16T15:51:42;3.50;;;1.35;;
66609;SDS011;53468;48.276;14.416;2022-08-16T15:57:16;4.35;;;1.85;;
66609;SDS011;53468;48.276;14.416;2022-08-16T16:02:54;2.42;;;1.58;;
66609;SDS011;53468;48.276;14.416;2022-08-16T16:08:31;3.17;;;1.30;;
66609;SDS011;53468;48.276;14.416;2022-08-16T16:14:04;3.40;;;1.50;;
66609;SDS011;53468;48.276;14.416;2022-08-16T16:19:37;2.85;;;1.45;;
66609;SDS011;53468;48.276;14.416;2022-08-16T16:25:10;8.25;;;1.83;;
66609;SDS011;53468;48.276;14.416;2022-08-16T16:30:46;3.70;;;1.30;;
66609;SDS011;53468;48.276;14.416;2022-08-16T16:36:19;2.33;;;1.48;;
66609;SDS011;53468;48.276;14.416;2022-08-16T16:41:53;2.35;;;1.08;;
66609;SDS011;53468;48.276;14.416;2022-08-16T16:47:28;4.05;;;1.60;;
66609;SDS011;53468;48.276;14.416;2022-08-16T16:53:01;3.13;;;1.50;;
66609;SDS011;53468;48.276;14.416;2022-08-16T16:58:35;8.25;;;1.90;;
66609;SDS011;53468;48.276;14.416;2022-08-16T17:04:28;3.88;;;1.10;;
66609;SDS011;53468;48.276;14.416;2022-08-16T17:10:00;1.83;;;1.00;;
66609;SDS011;53468;48.276;14.416;2022-08-16T17:15:34;2.67;;;1.52;;
66609;SDS011;53468;48.276;14.416;2022-08-16T17:21:08;2.47;;;1.50;;
66609;SDS011;53468;48.276;14.416;2022-08-16T17:26:40;5.68;;;1.77;;
66609;SDS011;53468;48.276;14.416;2022-08-16T17:32:13;3.85;;;1.35;;
66609;SDS011;53468;48.276;14.416;2022-08-16T17:37:49;5.03;;;1.60;;
66609;SDS011;53468;48.276;14.416;2022-08-16T17:43:22;2.88;;;1.48;;
66609;SDS011;53468;48.276;14.416;2022-08-16T17:48:56;5.88;;;1.52;;
66609;SDS011;53468;48.276;14.416;2022-08-16T17:54:30;3.80;;;1.58;;
66609;SDS011;53468;48.276;14.416;2022-08-16T18:00:02;2.90;;;1.55;;
66609;SDS011;53468;48.276;14.416;2022-08-16T18:05:36;4.05;;;1.60;;
66609;SDS011;53468;48.276;14.416;2022-08-16T18:11:11;2.83;;;1.60;;
66609;SDS011;53468;48.276;14.416;2022-08-16T18:16:47;3.75;;;1.67;;
66609;SDS011;53468;48.276;14.416;2022-08-16T18:22:20;6.13;;;1.80;;
66609;SDS011;53468;48.276;14.416;2022-08-16T18:27:54;4.40;;;1.30;;
66609;SDS011;53468;48.276;14.416;2022-08-16T18:33:26;16.85;;;2.05;;
66609;SDS011;53468;48.276;14.416;2022-08-16T18:38:58;3.13;;;1.83;;
66609;SDS011;53468;48.276;14.416;2022-08-16T18:44:32;4.05;;;2.00;;
66609;SDS011;53468;48.276;14.416;2022-08-16T18:50:07;3.45;;;1.63;;
66609;SDS011;53468;48.276;14.416;2022-08-16T18:55:39;5.22;;;2.80;;
66609;SDS011;53468;48.276;14.416;2022-08-16T19:01:15;3.85;;;2.20;;
66609;SDS011;53468;48.276;14.416;2022-08-16T19:06:48;6.60;;;2.25;;
66609;SDS011;53468;48.276;14.416;2022-08-16T19:12:20;3.60;;;1.65;;
66609;SDS011;53468;48.276;14.416;2022-08-16T19:17:53;3.15;;;2.00;;
66609;SDS011;53468;48.276;14.416;2022-08-16T19:23:27;3.15;;;2.20;;
66609;SDS011;53468;48.276;14.416;2022-08-16T19:29:03;4.43;;;1.67;;
66609;SDS011;53468;48.276;14.416;2022-08-16T19:34:36;4.97;;;2.15;;
66609;SDS011;53468;48.276;14.416;2022-08-16T19:40:10;7.95;;;2.53;;
66609;SDS011;53468;48.276;14.416;2022-08-16T19:45:43;5.47;;;2.13;;
66609;SDS011;53468;48.276;14.416;2022-08-16T19:51:17;4.65;;;2.00;;
66609;SDS011;53468;48.276;14.416;2022-08-16T19:56:49;3.85;;;2.33;;
66609;SDS011;53468;48.276;14.416;2022-08-16T20:02:22;3.03;;;1.95;;
66609;SDS011;53468;48.276;14.416;2022-08-16T20:08:00;6.35;;;2.22;;
66609;SDS011;53468;48.276;14.416;2022-08-16T20:13:33;2.90;;;1.98;;
66609;SDS011;53468;48.276;14.416;2022-08-16T20:19:07;3.88;;;1.90;;
66609;SDS011;53468;48.276;14.416;2022-08-16T20:24:41;4.07;;;2.10;;
66609;SDS011;53468;48.276;14.416;2022-08-16T20:30:14;6.85;;;2.30;;
66609;SDS011;53468;48.276;14.416;2022-08-16T20:35:48;5.00;;;2.10;;
66609;SDS011;53468;48.276;14.416;2022-08-16T20:41:22;4.57;;;2.40;;
66609;SDS011;53468;48.276;14.416;2022-08-16T20:46:54;7.40;;;2.30;;
66609;SDS011;53468;48.276;14.416;2022-08-16T20:52:26;4.57;;;2.45;;
66609;SDS011;53468;48.276;14.416;2022-08-16T20:58:00;4.80;;;2.75;;
66609;SDS011;53468;48.276;14.416;2022-08-16T21:03:33;5.57;;;2.80;;
66609;SDS011;53468;48.276;14.416;2022-08-16T21:09:05;3.55;;;2.40;;
66609;SDS011;53468;48.276;14.416;2022-08-16T21:14:40;3.85;;;2.40;;
66609;SDS011;53468;48.276;14.416;2022-08-16T21:20:13;4.20;;;2.60;;
66609;SDS011;53468;48.276;14.416;2022-08-16T21:25:45;6.22;;;2.33;;
66609;SDS011;53468;48.276;14.416;2022-08-16T21:31:19;4.65;;;2.38;;
66609;SDS011;53468;48.276;14.416;2022-08-16T21:36:52;4.72;;;2.47;;
66609;SDS011;53468;48.276;14.416;2022-08-16T21:42:24;5.45;;;2.60;;
66609;SDS011;53468;48.276;14.416;2022-08-16T21:47:58;4.75;;;2.42;;
66609;SDS011;53468;48.276;14.416;2022-08-16T21:53:31;3.58;;;2.58;;
66609;SDS011;53468;48.276;14.416;2022-08-16T21:59:07;4.18;;;2.13;;
66609;SDS011;53468;48.276;14.416;2022-08-16T22:05:00;7.03;;;2.40;;
66609;SDS011;53468;48.276;14.416;2022-08-16T22:10:40;4.68;;;2.58;;
66609;SDS011;53468;48.276;14.416;2022-08-16T22:16:25;3.15;;;2.40;;
66609;SDS011;53468;48.276;14.416;2022-08-16T22:28:25;5.30;;;2.38;;
66609;SDS011;53468;48.276;14.416;2022-08-16T22:34:42;4.22;;;2.20;;
66609;SDS011;53468;48.276;14.416;2022-08-16T22:40:32;4.57;;;2.85;;
66609;SDS011;53468;48.276;14.416;2022-08-16T22:46:14;4.28;;;2.42;;
66609;SDS011;53468;48.276;14.416;2022-08-16T22:51:50;4.40;;;2.78;;
66609;SDS011;53468;48.276;14.416;2022-08-16T22:57:25;5.07;;;2.17;;
66609;SDS011;53468;48.276;14.416;2022-08-16T23:08:59;6.47;;;2.65;;
66609;SDS011;53468;48.276;14.416;2022-08-16T23:14:43;3.88;;;2.58;;
66609;SDS011;53468;48.276;14.416;2022-08-16T23:20:27;4.20;;;2.70;;
66609;SDS011;53468;48.276;14.416;2022-08-16T23:26:04;4.55;;;3.03;;
66609;SDS011;53468;48.276;14.416;2022-08-16T23:31:40;5.85;;;2.53;;
66609;SDS011;53468;48.276;14.416;2022-08-16T23:37:23;4.70;;;2.70;;
66609;SDS011;53468;48.276;14.416;2022-08-16T23:42:59;6.30;;;2.70;;
66609;SDS011;53468;48.276;14.416;2022-08-16T23:48:36;5.13;;;2.30;;
